Time;durP1;ratioP1;P1;durP2;ratioP2;P2;SDS_P1;SDS_P2;PMS_P1;PMS_P2;Temp;Humidity;BMP_temperature;BMP_pressure;BME280_temperature;BME280_humidity;BME280_pressure;Samples;Min_cycle;Max_cycle;Signal;HPM_P1;HPM_P2
2023/04/09 00:01:08;;;;;;;12.83;11.53;;;;;;;8.57;64.28;95110.69;4992006;28;20235;-71
2023/04/09 00:03:34;;;;;;;14.00;12.67;;;;;;;8.66;64.15;95102.97;4987626;28;20278;-70
2023/04/09 00:05:59;;;;;;;14.10;12.83;;;;;;;8.64;64.08;95107.56;4989518;28;20209;-71
2023/04/09 00:08:25;;;;;;;13.53;12.33;;;;;;;8.67;64.05;95107.28;4991099;28;20187;-72
2023/04/09 00:10:51;;;;;;;12.80;11.60;;;;;;;8.77;63.99;95119.41;4991239;28;20220;-72
2023/04/09 00:13:17;;;;;;;13.47;12.27;;;;;;;8.71;63.97;95117.31;4991085;28;20235;-72
2023/04/09 00:15:44;;;;;;;12.97;11.83;;;;;;;8.65;64.09;95109.19;4996304;28;20254;-71
2023/04/09 00:18:09;;;;;;;13.33;12.20;;;;;;;8.52;64.78;95119.94;4988399;28;20223;-72
2023/04/09 00:20:35;;;;;;;13.90;12.60;;;;;;;8.65;64.15;95120.50;4990176;28;20211;-72
2023/04/09 00:23:00;;;;;;;13.77;12.57;;;;;;;8.75;63.54;95123.97;4990905;28;20220;-71
2023/04/09 00:25:27;;;;;;;12.07;11.07;;;;;;;8.73;63.63;95123.25;4989812;28;20227;-70
2023/04/09 00:27:53;;;;;;;12.37;11.27;;;;;;;8.72;63.98;95121.63;4988457;28;20228;-72
2023/04/09 00:30:19;;;;;;;12.90;11.80;;;;;;;8.68;63.99;95122.84;4989789;28;21028;-71
2023/04/09 00:32:45;;;;;;;12.43;11.33;;;;;;;8.78;63.89;95126.31;4989125;28;20211;-71
2023/04/09 00:35:10;;;;;;;12.73;11.63;;;;;;;8.69;64.10;95118.47;4989857;28;20591;-72
2023/04/09 00:37:36;;;;;;;11.87;10.77;;;;;;;8.78;63.98;95125.47;4989939;28;20222;-72
2023/04/09 00:40:02;;;;;;;11.63;10.67;;;;;;;8.79;63.81;95114.00;4988797;28;20231;-72
2023/04/09 00:42:33;;;;;;;12.20;11.13;;;;;;;8.78;63.60;95123.69;4988526;28;20227;-71
2023/04/09 00:44:59;;;;;;;12.37;11.37;;;;;;;8.70;63.87;95123.53;4987496;28;20191;-71
2023/04/09 00:47:27;;;;;;;12.30;11.10;;;;;;;8.75;64.09;95123.13;4989932;28;20207;-72
2023/04/09 00:49:54;;;;;;;11.50;10.50;;;;;;;8.71;64.14;95127.81;4987320;28;20270;-72
2023/04/09 00:52:20;;;;;;;11.30;10.30;;;;;;;8.71;63.77;95113.88;4989930;28;20303;-73
2023/04/09 00:54:47;;;;;;;10.90;10.00;;;;;;;8.68;63.81;95119.41;4987681;28;20242;-72
2023/04/09 00:57:14;;;;;;;11.73;10.73;;;;;;;8.66;64.17;95116.94;4988975;28;20226;-65
2023/04/09 00:59:40;;;;;;;11.23;10.33;;;;;;;8.70;64.02;95127.97;4990123;28;20274;-65
2023/04/09 01:02:06;;;;;;;11.23;10.23;;;;;;;8.67;64.27;95123.81;4989275;28;20238;-65
2023/04/09 01:04:32;;;;;;;10.87;9.87;;;;;;;8.63;64.04;95125.03;4988177;28;20227;-65
2023/04/09 01:07:11;;;;;;;10.13;9.23;;;;;;;8.63;64.06;95124.22;4989419;28;20224;-65
2023/04/09 01:09:46;;;;;;;10.47;9.57;;;;;;;8.44;64.89;95119.81;4989192;28;20227;-65
2023/04/09 01:12:35;;;;;;;11.23;10.23;;;;;;;8.51;64.39;95131.41;4987373;28;20222;-65
2023/04/09 01:15:13;;;;;;;11.50;10.40;;;;;;;8.45;64.57;95122.28;4991937;28;20237;-65
2023/04/09 01:18:00;;;;;;;11.57;10.57;;;;;;;8.42;64.88;95135.69;4974548;28;20207;-65
2023/04/09 01:20:33;;;;;;;11.23;10.23;;;;;;;8.41;65.13;95127.94;4987342;28;20285;-70
2023/04/09 01:23:31;;;;;;;11.47;10.57;;;;;;;8.38;65.04;95124.59;4981433;28;20300;-67
2023/04/09 01:26:15;;;;;;;11.57;10.37;;;;;;;8.51;64.72;95128.78;4991868;28;20634;-67
2023/04/09 01:28:47;;;;;;;10.97;9.97;;;;;;;8.46;64.45;95125.75;4993620;28;20261;-67
2023/04/09 01:31:17;;;;;;;11.70;10.70;;;;;;;8.47;64.35;95128.19;4993400;28;20223;-67
2023/04/09 01:33:43;;;;;;;11.47;10.47;;;;;;;8.48;64.53;95129.06;4977400;28;20313;-67
2023/04/09 01:36:10;;;;;;;10.33;9.53;;;;;;;8.51;64.43;95118.31;4993209;28;20243;-67
2023/04/09 01:38:38;;;;;;;12.23;11.03;;;;;;;8.52;64.30;95130.44;4992207;28;20219;-67
2023/04/09 01:41:05;;;;;;;11.47;10.47;;;;;;;8.56;64.25;95121.34;4977817;28;20249;-67
2023/04/09 01:43:32;;;;;;;11.80;10.80;;;;;;;8.54;64.30;95131.13;4993287;28;20211;-67
2023/04/09 01:46:00;;;;;;;11.67;10.50;;;;;;;8.45;64.59;95124.91;4977068;28;20237;-67
2023/04/09 01:48:27;;;;;;;11.83;10.63;;;;;;;8.44;64.22;95125.03;4998293;28;20235;-67
2023/04/09 01:50:53;;;;;;;12.07;11.07;;;;;;;8.38;64.66;95127.22;4989927;28;20180;-67
2023/04/09 01:53:20;;;;;;;11.70;10.60;;;;;;;8.41;64.52;95127.94;4994001;28;20207;-67
2023/04/09 01:55:45;;;;;;;12.20;11.20;;;;;;;8.32;64.69;95113.84;4989717;28;20309;-70
2023/04/09 01:58:12;;;;;;;11.23;10.13;;;;;;;8.33;64.83;95129.41;4993011;28;20235;-71
2023/04/09 02:00:42;;;;;;;12.67;11.57;;;;;;;8.31;65.17;95133.97;4987129;28;20239;-71
2023/04/09 02:03:13;;;;;;;11.70;10.57;;;;;;;8.33;64.88;95129.41;5006957;28;20234;-70
2023/04/09 02:05:45;;;;;;;12.47;11.40;;;;;;;8.27;65.07;95127.31;4992263;28;20188;-70
2023/04/09 02:08:15;;;;;;;13.90;12.73;;;;;;;8.29;64.95;95132.44;4991676;28;20220;-70
2023/04/09 02:10:43;;;;;;;11.60;10.67;;;;;;;8.26;65.20;95130.91;5004490;28;20224;-70
2023/04/09 02:13:15;;;;;;;12.17;11.07;;;;;;;8.25;64.83;95128.41;4990716;28;20254;-70
2023/04/09 02:15:41;;;;;;;11.57;10.57;;;;;;;8.23;64.66;95135.59;4989916;28;20304;-70
2023/04/09 02:18:29;;;;;;;11.80;10.80;;;;;;;8.24;64.66;95134.63;4991168;28;20194;-69
2023/04/09 02:20:56;;;;;;;13.20;11.90;;;;;;;8.26;64.82;95135.31;4991470;28;20187;-71
2023/04/09 02:23:22;;;;;;;14.30;12.93;;;;;;;8.26;64.52;95132.69;4992230;28;20186;-71
2023/04/09 02:25:48;;;;;;;14.07;12.67;;;;;;;8.21;64.52;95122.63;4989148;28;20236;-71
2023/04/09 02:28:13;;;;;;;15.10;13.73;;;;;;;8.20;64.70;95123.59;5001264;28;20224;-69
2023/04/09 02:30:39;;;;;;;13.53;12.23;;;;;;;8.08;64.92;95122.88;4991728;28;20226;-70
2023/04/09 02:33:05;;;;;;;13.60;12.20;;;;;;;8.07;65.03;95126.47;4991198;28;20215;-70
2023/04/09 02:35:30;;;;;;;14.43;13.13;;;;;;;8.11;65.13;95129.63;4992241;28;20184;-71
2023/04/09 02:37:55;;;;;;;14.10;12.77;;;;;;;8.09;64.85;95124.53;5007524;28;20310;-71
2023/04/09 02:40:21;;;;;;;15.27;13.87;;;;;;;7.95;65.06;95117.06;4991200;28;20245;-70
2023/04/09 02:42:46;;;;;;;14.80;12.80;;;;;;;7.98;65.25;95119.41;4991466;28;20243;-72
2023/04/09 02:45:12;;;;;;;14.07;12.77;;;;;;;8.00;65.17;95119.28;4990961;28;20220;-72
2023/04/09 02:47:37;;;;;;;14.10;12.90;;;;;;;8.02;64.94;95125.19;4991971;28;20663;-72
2023/04/09 02:50:04;;;;;;;13.77;12.57;;;;;;;7.93;65.37;95122.41;4991588;28;20221;-71
2023/04/09 02:52:29;;;;;;;13.83;12.63;;;;;;;7.94;65.18;95120.63;4991433;28;20224;-72
2023/04/09 02:54:55;;;;;;;13.20;12.10;;;;;;;7.94;65.22;95121.47;4989152;28;20234;-71
2023/04/09 02:57:20;;;;;;;14.37;13.07;;;;;;;7.91;65.36;95121.72;4987900;28;20223;-67
2023/04/09 02:59:46;;;;;;;15.07;13.63;;;;;;;7.91;65.74;95115.63;4991925;28;20283;-67
2023/04/09 03:02:11;;;;;;;15.40;13.87;;;;;;;7.89;65.28;95109.72;4991075;28;20302;-68
2023/04/09 03:04:37;;;;;;;14.90;13.60;;;;;;;7.85;65.56;95110.94;4991221;28;20588;-67
2023/04/09 03:07:03;;;;;;;16.13;14.63;;;;;;;7.80;65.91;95111.34;4990727;28;20289;-68
2023/04/09 03:09:29;;;;;;;15.50;14.00;;;;;;;7.78;65.73;95115.03;4991003;28;20223;-68
2023/04/09 03:11:56;;;;;;;17.10;15.27;;;;;;;7.76;65.60;95109.97;4991326;28;20219;-68
2023/04/09 03:14:22;;;;;;;15.53;14.17;;;;;;;7.79;65.63;95114.94;4991129;28;20226;-69
2023/04/09 03:16:47;;;;;;;15.33;13.93;;;;;;;7.81;65.29;95115.63;4971596;28;20220;-68
2023/04/09 03:19:13;;;;;;;16.37;14.80;;;;;;;7.71;65.84;95109.53;4991376;28;20234;-68
2023/04/09 03:21:39;;;;;;;16.60;14.97;;;;;;;7.68;66.20;95118.47;4991527;28;20242;-68
2023/04/09 03:24:05;;;;;;;16.17;14.67;;;;;;;7.74;66.46;95117.09;4991058;28;20225;-67
2023/04/09 03:26:35;;;;;;;16.70;15.20;;;;;;;7.67;66.16;95116.81;4991692;28;20247;-67
2023/04/09 03:29:01;;;;;;;16.30;14.80;;;;;;;7.64;66.45;95106.59;4990941;28;20222;-68
2023/04/09 03:31:26;;;;;;;17.00;15.40;;;;;;;7.66;66.28;95116.94;4991162;28;20235;-67
2023/04/09 03:33:52;;;;;;;18.30;16.57;;;;;;;7.62;66.05;95123.41;4990119;28;20322;-68
2023/04/09 03:36:17;;;;;;;17.87;16.07;;;;;;;7.65;65.76;95128.38;4991235;28;20215;-67
2023/04/09 03:38:43;;;;;;;17.17;15.60;;;;;;;7.64;65.75;95132.75;4988255;28;20184;-67
2023/04/09 03:41:08;;;;;;;17.43;15.83;;;;;;;7.61;66.12;95119.13;4991025;28;20223;-67
2023/04/09 03:43:33;;;;;;;17.83;16.23;;;;;;;7.58;66.07;95116.75;4991900;28;20215;-68
2023/04/09 03:45:59;;;;;;;17.57;15.87;;;;;;;7.61;66.19;95119.13;4990466;28;20250;-67
2023/04/09 03:48:24;;;;;;;17.43;15.93;;;;;;;7.62;66.00;95118.19;4990501;28;20330;-73
2023/04/09 03:50:52;;;;;;;18.43;16.70;;;;;;;7.65;65.86;95125.75;4989784;28;20198;-71
2023/04/09 03:53:17;;;;;;;18.63;16.83;;;;;;;7.65;66.39;95123.97;4991205;28;20214;-72
2023/04/09 03:55:43;;;;;;;18.80;16.93;;;;;;;7.54;66.19;95123.22;4988855;28;20287;-70
2023/04/09 03:58:08;;;;;;;18.53;16.83;;;;;;;7.61;66.42;95127.78;4990604;28;20329;-71
2023/04/09 04:00:34;;;;;;;18.97;17.03;;;;;;;7.60;66.13;95133.19;4990637;28;20231;-71
2023/04/09 04:02:59;;;;;;;19.20;17.30;;;;;;;7.58;66.42;95130.69;4990351;28;20188;-70
2023/04/09 04:05:25;;;;;;;18.73;17.03;;;;;;;7.57;66.22;95117.75;4990598;28;20239;-72
2023/04/09 04:07:50;;;;;;;18.30;16.70;;;;;;;7.57;66.43;95128.22;4988816;28;20294;-73
2023/04/09 04:10:16;;;;;;;18.00;16.50;;;;;;;7.57;66.37;95134.25;4990820;28;20239;-72
2023/04/09 04:12:41;;;;;;;18.00;16.30;;;;;;;7.61;65.81;95125.16;5005534;28;20697;-72
2023/04/09 04:15:07;;;;;;;18.43;16.83;;;;;;;7.66;65.55;95135.25;5002677;28;20768;-72
2023/04/09 04:17:33;;;;;;;17.93;16.33;;;;;;;7.77;65.12;95124.69;4991283;28;20191;-72
2023/04/09 04:19:58;;;;;;;17.50;16.00;;;;;;;7.79;64.86;95121.97;4990594;28;20219;-71
2023/04/09 04:22:23;;;;;;;18.47;16.73;;;;;;;7.79;64.85;95120.16;4990215;28;20228;-71
2023/04/09 04:24:49;;;;;;;18.40;16.70;;;;;;;7.81;65.00;95130.50;4990505;28;20254;-71
2023/04/09 04:27:14;;;;;;;19.67;17.80;;;;;;;7.77;65.17;95137.78;4989811;28;20219;-71
2023/04/09 04:29:40;;;;;;;19.63;17.83;;;;;;;7.81;65.07;95135.75;4990475;28;20198;-72
2023/04/09 04:32:05;;;;;;;18.33;16.63;;;;;;;7.87;64.75;95136.03;4991109;28;20298;-73
2023/04/09 04:34:31;;;;;;;18.83;17.07;;;;;;;7.95;64.73;95143.22;4990089;28;20226;-70
2023/04/09 04:36:56;;;;;;;18.73;17.13;;;;;;;7.92;64.85;95144.31;4988425;28;20220;-71
2023/04/09 04:39:22;;;;;;;18.47;16.83;;;;;;;7.98;64.75;95142.13;4990265;28;20257;-71
2023/04/09 04:41:47;;;;;;;18.87;17.17;;;;;;;7.88;64.94;95129.81;4990427;28;20194;-71
2023/04/09 04:44:12;;;;;;;19.33;17.53;;;;;;;7.91;64.80;95136.59;4967957;28;20208;-72
2023/04/09 04:46:38;;;;;;;19.30;17.50;;;;;;;8.03;64.54;95139.94;4984861;28;20215;-72
2023/04/09 04:49:03;;;;;;;17.97;16.37;;;;;;;8.10;64.07;95135.81;4989710;28;20219;-72
2023/04/09 04:51:32;;;;;;;19.53;17.60;;;;;;;8.06;64.03;95140.50;4990260;28;20288;-72
2023/04/09 04:53:57;;;;;;;20.57;18.57;;;;;;;8.17;63.77;95140.41;4988547;28;20195;-71
2023/04/09 04:56:23;;;;;;;19.53;17.30;;;;;;;8.17;63.73;95136.94;4989194;28;20180;-72
2023/04/09 04:58:48;;;;;;;19.40;17.60;;;;;;;8.30;63.63;95142.78;4989738;28;20230;-72
2023/04/09 05:01:14;;;;;;;18.67;16.87;;;;;;;8.44;63.26;95141.59;4989111;28;20295;-73
2023/04/09 05:03:39;;;;;;;19.83;17.93;;;;;;;8.38;63.12;95139.47;4988746;28;20235;-72
2023/04/09 05:06:05;;;;;;;18.30;16.60;;;;;;;8.45;62.71;95130.16;4990192;28;20188;-72
2023/04/09 05:08:30;;;;;;;18.57;16.87;;;;;;;8.46;62.93;95142.28;4990421;28;20270;-72
2023/04/09 05:10:56;;;;;;;19.40;17.60;;;;;;;8.53;62.67;95150.44;4989769;28;20246;-73
2023/04/09 05:13:22;;;;;;;18.87;17.17;;;;;;;8.48;63.04;95142.97;4989801;28;20234;-71
2023/04/09 05:15:48;;;;;;;18.97;17.07;;;;;;;8.59;63.22;95144.66;4989555;28;20223;-72
2023/04/09 05:18:13;;;;;;;19.77;17.97;;;;;;;8.72;62.46;95153.09;4988686;28;20230;-71
2023/04/09 05:20:39;;;;;;;18.03;16.23;;;;;;;8.73;62.54;95152.09;5005417;28;20183;-71
2023/04/09 05:23:05;;;;;;;19.73;17.83;;;;;;;8.75;62.42;95151.97;4989497;28;20219;-71
2023/04/09 05:25:30;;;;;;;20.50;18.60;;;;;;;8.73;62.47;95148.66;4988988;28;20212;-71
2023/04/09 05:27:56;;;;;;;20.40;18.40;;;;;;;8.67;63.02;95154.47;4989349;28;20553;-71
2023/04/09 05:30:21;;;;;;;19.97;18.07;;;;;;;8.77;63.00;95158.75;4987897;28;20223;-73
2023/04/09 05:32:47;;;;;;;20.63;18.73;;;;;;;8.87;63.00;95163.16;4986839;28;20198;-72
2023/04/09 05:35:12;;;;;;;18.80;16.90;;;;;;;8.89;62.43;95155.97;4987105;28;20215;-71
2023/04/09 05:37:37;;;;;;;21.60;19.47;;;;;;;8.94;62.23;95151.97;4989034;28;21109;-73
2023/04/09 05:40:03;;;;;;;19.97;17.97;;;;;;;8.92;62.70;95146.03;4987554;28;20227;-73
2023/04/09 05:42:29;;;;;;;19.80;17.80;;;;;;;8.96;62.47;95157.09;4971737;28;20223;-73
2023/04/09 05:44:54;;;;;;;19.63;17.73;;;;;;;8.98;62.13;95158.63;4991731;28;20180;-72
2023/04/09 05:47:20;;;;;;;19.33;17.37;;;;;;;9.05;61.81;95156.25;4989261;28;20188;-72
2023/04/09 05:49:46;;;;;;;19.73;17.40;;;;;;;9.04;61.93;95159.84;4989782;28;20223;-71
2023/04/09 05:52:11;;;;;;;18.13;16.27;;;;;;;8.99;61.71;95159.44;4989037;28;20223;-73
2023/04/09 05:54:37;;;;;;;18.47;16.70;;;;;;;9.11;61.67;95158.31;4991609;28;20231;-73
2023/04/09 05:57:02;;;;;;;18.03;16.23;;;;;;;9.20;61.33;95156.66;5003333;28;20251;-71
2023/04/09 05:59:28;;;;;;;18.47;16.57;;;;;;;9.25;60.80;95147.41;4989213;28;20187;-73
2023/04/09 06:01:53;;;;;;;16.80;15.20;;;;;;;9.32;60.47;95147.66;4990932;28;20207;-73
2023/04/09 06:04:18;;;;;;;17.17;15.23;;;;;;;9.12;60.97;95159.97;4991742;28;20322;-72
2023/04/09 06:06:44;;;;;;;18.10;16.23;;;;;;;9.16;61.07;95160.53;4991663;28;20225;-72
2023/04/09 06:09:10;;;;;;;19.00;16.93;;;;;;;9.16;60.45;95153.47;4990837;28;20590;-73
2023/04/09 06:11:35;;;;;;;18.50;15.67;;;;;;;9.30;60.86;95154.00;4982964;28;20187;-72
2023/04/09 06:14:00;;;;;;;18.77;16.77;;;;;;;9.56;60.01;95157.69;4992507;28;20778;-72
2023/04/09 06:16:26;;;;;;;16.50;14.90;;;;;;;9.49;60.00;95161.88;4988955;28;20221;-73
2023/04/09 06:18:53;;;;;;;17.60;15.37;;;;;;;9.57;59.40;95158.50;4990997;28;20223;-72
2023/04/09 06:21:19;;;;;;;17.77;15.77;;;;;;;9.77;59.15;95159.31;4990871;28;20482;-73
2023/04/09 06:23:44;;;;;;;16.23;13.73;;;;;;;9.86;58.16;95156.66;4992305;28;20710;-73
2023/04/09 06:26:10;;;;;;;17.63;15.07;;;;;;;10.01;57.29;95143.84;4991625;28;20307;-72
2023/04/09 06:28:35;;;;;;;15.30;13.67;;;;;;;10.00;57.00;95144.03;4988862;28;20211;-73
2023/04/09 06:31:01;;;;;;;18.20;14.47;;;;;;;9.98;57.26;95145.97;4992455;28;20238;-73
2023/04/09 06:33:26;;;;;;;16.40;14.57;;;;;;;10.03;57.09;95146.34;4991968;28;20230;-73
2023/04/09 06:35:52;;;;;;;16.97;15.27;;;;;;;10.14;56.74;95152.22;4989452;28;20207;-72
2023/04/09 06:38:17;;;;;;;16.47;14.70;;;;;;;10.24;56.60;95160.06;4991801;28;20241;-73
2023/04/09 06:40:43;;;;;;;17.60;15.00;;;;;;;10.38;56.12;95156.16;4992785;28;20743;-74
2023/04/09 06:43:08;;;;;;;15.27;13.77;;;;;;;10.32;55.95;95167.28;4991410;28;20229;-74
2023/04/09 06:45:34;;;;;;;14.50;13.00;;;;;;;10.19;55.98;95159.69;4992145;28;20227;-69
2023/04/09 06:48:00;;;;;;;14.33;12.83;;;;;;;10.14;55.43;95168.00;4989165;28;20192;-68
2023/04/09 06:50:26;;;;;;;14.30;12.80;;;;;;;10.11;55.36;95163.03;4991401;28;20356;-68
2023/04/09 06:52:52;;;;;;;15.97;12.47;;;;;;;10.13;54.85;95166.34;4991134;28;20215;-68
2023/04/09 06:55:17;;;;;;;12.67;11.37;;;;;;;10.20;54.13;95161.31;4990466;28;20262;-69
2023/04/09 06:57:43;;;;;;;12.53;11.30;;;;;;;10.28;54.35;95168.53;4989866;28;20219;-70
2023/04/09 07:00:09;;;;;;;15.43;12.43;;;;;;;10.36;53.31;95165.97;4990737;28;20234;-70
2023/04/09 07:02:35;;;;;;;12.53;11.33;;;;;;;10.51;53.52;95171.59;4989910;28;20192;-67
2023/04/09 07:05:01;;;;;;;12.07;10.87;;;;;;;10.52;53.62;95158.28;4992030;28;20238;-68
2023/04/09 07:07:28;;;;;;;11.87;10.77;;;;;;;10.49;53.50;95165.66;4990293;28;20227;-67
2023/04/09 07:09:54;;;;;;;12.17;10.97;;;;;;;10.54;53.70;95171.28;4990049;28;20693;-67
2023/04/09 07:12:46;;;;;;;12.17;10.97;;;;;;;10.66;53.27;95166.63;4989782;28;20227;-66
2023/04/09 07:15:11;;;;;;;11.37;10.27;;;;;;;10.62;52.85;95174.00;4985320;28;20334;-67
2023/04/09 07:17:37;;;;;;;12.77;11.00;;;;;;;10.62;52.91;95160.84;4990706;28;20278;-67
2023/04/09 07:20:02;;;;;;;12.70;11.50;;;;;;;10.69;52.93;95169.81;4989795;28;20306;-66
2023/04/09 07:22:29;;;;;;;12.27;11.17;;;;;;;10.74;52.42;95162.28;4987990;28;20374;-67
2023/04/09 07:24:55;;;;;;;13.40;11.17;;;;;;;10.82;52.32;95169.44;4981493;28;20239;-68
2023/04/09 07:27:26;;;;;;;11.83;10.80;;;;;;;10.74;52.41;95175.44;4987093;28;20241;-68
2023/04/09 07:29:55;;;;;;;11.07;9.97;;;;;;;10.46;52.49;95168.56;4991324;28;20215;-67
2023/04/09 07:32:20;;;;;;;11.23;10.23;;;;;;;10.55;52.30;95165.88;4988530;28;20258;-68
2023/04/09 07:34:45;;;;;;;10.77;9.77;;;;;;;10.85;51.41;95171.75;4990061;28;20239;-67
2023/04/09 07:37:11;;;;;;;10.57;9.60;;;;;;;10.71;51.43;95165.22;4990082;28;20215;-67
2023/04/09 07:39:37;;;;;;;10.53;9.60;;;;;;;10.94;50.99;95170.88;4989221;28;20296;-68
2023/04/09 07:42:03;;;;;;;11.47;10.37;;;;;;;10.92;51.24;95172.00;4990440;28;20196;-65
2023/04/09 07:44:33;;;;;;;10.53;9.63;;;;;;;11.04;50.59;95176.06;4988989;28;20184;-65
2023/04/09 07:46:59;;;;;;;11.23;10.10;;;;;;;11.01;51.38;95182.47;4990347;28;20216;-65
2023/04/09 07:49:24;;;;;;;11.30;10.30;;;;;;;11.03;50.81;95177.84;4990186;28;20294;-65
2023/04/09 07:51:50;;;;;;;11.23;10.13;;;;;;;11.00;50.45;95178.16;4987515;28;20294;-66
2023/04/09 07:54:15;;;;;;;10.67;9.57;;;;;;;11.30;49.79;95180.56;4987974;28;20231;-65
2023/04/09 07:56:41;;;;;;;11.63;10.50;;;;;;;11.22;50.47;95183.94;4990781;28;20182;-65
2023/04/09 07:59:06;;;;;;;10.57;9.60;;;;;;;11.36;49.73;95179.94;4989638;28;20242;-66
2023/04/09 08:01:31;;;;;;;11.00;9.90;;;;;;;11.35;49.03;95187.00;4990101;28;20311;-65
2023/04/09 08:03:57;;;;;;;10.10;9.15;;;;;;;11.38;48.44;95186.69;4989177;28;20246;-65
2023/04/09 08:06:22;;;;;;;10.95;9.02;;;;;;;10.98;49.59;95182.75;4989069;28;20223;-64
2023/04/09 08:08:48;;;;;;;10.83;9.90;;;;;;;10.86;50.00;95188.38;4989759;28;20203;-65
2023/04/09 08:11:13;;;;;;;10.87;9.77;;;;;;;10.80;50.03;95200.34;4988456;28;20230;-65
2023/04/09 08:13:39;;;;;;;10.93;9.83;;;;;;;10.69;50.56;95196.13;4989593;28;20255;-65
2023/04/09 08:16:05;;;;;;;10.27;9.27;;;;;;;10.71;50.55;95195.94;4989310;28;20264;-65
2023/04/09 08:18:30;;;;;;;10.67;9.67;;;;;;;10.65;50.60;95196.56;4987546;28;20223;-65
2023/04/09 08:20:56;;;;;;;9.87;8.97;;;;;;;10.88;49.83;95204.81;4988521;28;20269;-64
2023/04/09 08:23:21;;;;;;;11.00;10.00;;;;;;;10.86;49.90;95201.53;4989636;28;20188;-65
2023/04/09 08:25:47;;;;;;;10.60;9.60;;;;;;;10.87;50.44;95201.38;4981984;28;20222;-65
2023/04/09 08:28:12;;;;;;;10.70;9.60;;;;;;;10.72;50.88;95202.84;4988381;28;20223;-64
2023/04/09 08:30:38;;;;;;;11.30;10.20;;;;;;;10.73;50.73;95207.16;4988813;28;20223;-65
2023/04/09 08:33:04;;;;;;;11.20;10.20;;;;;;;10.84;50.67;95206.94;4988848;28;20191;-65
2023/04/09 08:35:30;;;;;;;11.10;9.90;;;;;;;10.78;50.65;95199.66;4990044;28;20205;-65
2023/04/09 08:37:56;;;;;;;12.67;11.37;;;;;;;10.79;50.56;95194.22;4983140;28;20231;-64
2023/04/09 08:40:22;;;;;;;11.53;10.43;;;;;;;10.87;50.92;95206.63;4990614;28;20327;-64
2023/04/09 08:42:56;;;;;;;12.47;11.27;;;;;;;10.87;51.03;95204.00;4989113;28;20254;-64
2023/04/09 08:45:22;;;;;;;11.87;10.77;;;;;;;10.80;51.79;95200.34;4988934;28;20702;-65
2023/04/09 08:47:49;;;;;;;12.27;11.07;;;;;;;10.98;51.20;95198.53;4988836;28;20191;-67
2023/04/09 08:50:15;;;;;;;12.17;10.87;;;;;;;11.03;50.72;95196.28;4990615;28;20199;-64
2023/04/09 08:52:41;;;;;;;12.37;11.17;;;;;;;11.04;51.06;95197.94;4989553;28;20216;-63
2023/04/09 08:55:07;;;;;;;11.83;10.63;;;;;;;11.07;50.42;95194.19;4989120;28;20238;-63
2023/04/09 08:57:39;;;;;;;11.87;10.77;;;;;;;11.09;50.68;95194.84;4988979;28;20223;-63
2023/04/09 09:00:06;;;;;;;12.20;10.90;;;;;;;11.06;50.98;95189.88;4984905;28;20233;-63
2023/04/09 09:02:32;;;;;;;12.90;11.77;;;;;;;11.16;51.04;95185.38;4989105;28;20188;-64
2023/04/09 09:05:00;;;;;;;12.45;11.02;;;;;;;11.42;49.93;95203.03;4988701;28;20239;-63
2023/04/09 09:07:30;;;;;;;12.70;11.50;;;;;;;10.81;52.76;95199.34;4988887;28;20231;-71
2023/04/09 09:10:03;;;;;;;12.50;11.40;;;;;;;10.72;52.52;95187.94;4989224;28;20223;-65
2023/04/09 09:12:40;;;;;;;12.50;11.33;;;;;;;10.98;52.05;95193.25;4982844;28;20238;-67
2023/04/09 09:15:27;;;;;;;11.47;10.43;;;;;;;11.20;50.75;95180.63;4987219;28;20276;-67
2023/04/09 09:17:56;;;;;;;11.73;10.47;;;;;;;11.19;50.71;95185.06;4965408;28;20237;-67
2023/04/09 09:20:23;;;;;;;11.00;9.93;;;;;;;11.24;50.17;95187.25;4967885;28;20644;-68
2023/04/09 09:22:53;;;;;;;10.40;9.48;;;;;;;11.53;49.91;95183.53;4971486;28;20224;-66
2023/04/09 09:25:23;;;;;;;10.90;9.90;;;;;;;11.62;49.49;95172.06;4989032;28;20233;-68
2023/04/09 09:27:49;;;;;;;11.23;10.13;;;;;;;11.61;49.51;95167.78;4987427;28;20281;-67
2023/04/09 09:30:26;;;;;;;11.47;10.37;;;;;;;11.78;49.50;95177.44;4989462;28;20253;-68
2023/04/09 09:33:10;;;;;;;10.20;9.32;;;;;;;11.96;48.36;95169.53;4986703;28;20285;-66
2023/04/09 09:35:49;;;;;;;10.03;9.03;;;;;;;12.08;48.49;95172.69;4993434;28;20259;-67
2023/04/09 09:38:15;;;;;;;9.15;8.35;;;;;;;12.36;47.04;95157.50;4993699;28;20218;-69
2023/04/09 09:40:41;;;;;;;11.13;10.13;;;;;;;12.32;47.88;95167.56;4994413;28;20679;-69
2023/04/09 09:43:07;;;;;;;10.15;9.20;;;;;;;12.30;47.25;95158.97;4994161;28;20234;-67
2023/04/09 09:45:33;;;;;;;11.07;10.13;;;;;;;12.44;48.05;95162.00;4993736;28;20239;-66
2023/04/09 09:47:58;;;;;;;9.63;8.60;;;;;;;12.47;46.28;95151.94;4991563;28;20192;-68
2023/04/09 09:50:25;;;;;;;9.13;8.32;;;;;;;12.72;44.68;95152.84;4998083;28;20191;-71
2023/04/09 09:52:57;;;;;;;8.57;7.75;;;;;;;12.67;44.62;95149.88;4992960;28;20233;-72
2023/04/09 09:55:26;;;;;;;8.95;8.15;;;;;;;12.67;45.32;95156.94;4992287;28;20318;-72
2023/04/09 09:57:55;;;;;;;9.48;8.57;;;;;;;13.05;44.79;95150.25;4993537;28;20302;-71
2023/04/09 10:00:24;;;;;;;9.20;8.32;;;;;;;13.31;44.61;95152.78;4992871;28;20228;-72
2023/04/09 10:03:13;;;;;;;7.65;6.90;;;;;;;13.52;43.10;95146.16;4992449;28;20192;-71
2023/04/09 10:05:40;;;;;;;8.80;8.10;;;;;;;13.68;43.13;95146.97;4985840;28;20285;-70
2023/04/09 10:08:06;;;;;;;7.72;7.03;;;;;;;13.82;41.64;95145.47;4992193;28;20223;-74
2023/04/09 10:10:32;;;;;;;8.32;7.63;;;;;;;13.92;41.64;95142.63;4994205;28;20231;-74
2023/04/09 10:12:58;;;;;;;7.53;6.90;;;;;;;13.86;41.49;95146.75;4992712;28;20234;-71
2023/04/09 10:15:27;;;;;;;8.80;8.10;;;;;;;13.83;41.86;95131.25;4991753;28;20336;-72
2023/04/09 10:17:53;;;;;;;9.02;8.32;;;;;;;14.01;42.31;95138.97;4983043;28;20220;-72
2023/04/09 10:20:27;;;;;;;7.70;7.07;;;;;;;14.24;40.97;95117.88;4993604;28;20179;-72
2023/04/09 10:22:54;;;;;;;8.25;7.55;;;;;;;14.30;41.21;95122.50;4973199;28;20237;-70
2023/04/09 10:25:19;;;;;;;7.45;6.85;;;;;;;14.51;39.52;95119.28;4992952;28;20291;-70
2023/04/09 10:27:47;;;;;;;7.75;7.15;;;;;;;14.53;39.56;95124.41;4992751;28;20310;-70
2023/04/09 10:30:32;;;;;;;8.85;8.05;;;;;;;14.51;40.78;95119.28;4981262;28;20216;-70
2023/04/09 10:33:27;;;;;;;8.70;7.97;;;;;;;14.56;40.46;95121.41;4993057;28;20234;-70
2023/04/09 10:35:54;;;;;;;8.90;8.10;;;;;;;14.78;39.56;95125.94;4953586;28;20677;-69
2023/04/09 10:38:45;;;;;;;7.93;7.10;;;;;;;14.73;39.16;95114.22;4938857;28;20199;-70
2023/04/09 10:41:20;;;;;;;8.50;7.68;;;;;;;14.67;39.13;95106.97;4957799;28;20823;-70
2023/04/09 10:43:47;;;;;;;7.82;7.22;;;;;;;14.68;39.35;95106.78;4933184;29;20220;-70
2023/04/09 10:46:44;;;;;;;8.25;7.45;;;;;;;14.65;40.29;95104.50;4953206;28;20595;-70
2023/04/09 10:49:10;;;;;;;8.32;7.63;;;;;;;14.82;39.48;95099.91;4885760;29;20258;-69
2023/04/09 10:51:40;;;;;;;8.07;7.47;;;;;;;14.68;39.44;95092.75;4865321;29;20355;-69
2023/04/09 10:54:24;;;;;;;8.18;7.57;;;;;;;14.58;40.06;95092.13;4860211;29;20663;-70
2023/04/09 10:57:23;;;;;;;7.63;6.97;;;;;;;14.84;39.25;95087.34;4896584;29;20182;-71
2023/04/09 10:59:51;;;;;;;8.13;7.43;;;;;;;14.75;38.94;95083.94;4829950;29;20209;-70
2023/04/09 11:02:53;;;;;;;8.45;7.75;;;;;;;14.78;39.53;95082.72;4846296;29;20292;-71
2023/04/09 11:05:32;;;;;;;7.95;7.22;;;;;;;14.97;39.48;95082.28;4829990;29;20271;-70
2023/04/09 11:08:06;;;;;;;7.60;7.00;;;;;;;15.05;38.58;95083.19;4844053;29;20277;-71
2023/04/09 11:10:32;;;;;;;8.35;7.65;;;;;;;14.88;38.63;95082.50;4826222;29;20239;-70
2023/04/09 11:12:59;;;;;;;8.52;7.72;;;;;;;14.78;38.87;95074.78;4856677;29;20228;-71
2023/04/09 11:15:24;;;;;;;9.00;8.30;;;;;;;14.63;43.05;95082.69;4861152;29;20238;-70
2023/04/09 11:17:50;;;;;;;8.35;7.50;;;;;;;14.51;44.42;95076.09;4860637;29;20200;-71
2023/04/09 11:20:19;;;;;;;8.05;7.30;;;;;;;14.42;45.35;95072.66;4862014;29;20187;-70
2023/04/09 11:22:45;;;;;;;8.90;8.10;;;;;;;14.44;45.23;95075.97;4876770;29;20728;-68
2023/04/09 11:25:26;;;;;;;9.70;8.80;;;;;;;14.30;46.15;95072.25;4896357;29;20285;-72
2023/04/09 11:27:52;;;;;;;9.73;8.93;;;;;;;14.08;46.78;95076.47;4917305;29;20237;-72